Hauptseite
METAR-TAF:

METAR-TAF

Flughäfen :

Flughafen Pamplona

Pamplona, Spanien

Breite: 42-46N, Länge: 001-38W, Höhe: 459 m

Beobachtung

Neuester Wetterbericht von vor 36 Minuten, um 04:00 UTC
Wind 9 kt aus Ost/Südost
Temperatur 6°C
Luftfeuchtigkeit 31%
Luftdruck 1024 hPa
Sichtweite 10 km oder mehr

METAR: LEPP 170400Z AUTO 11009KT 9999 NCD 06/M10 Q1024

Zeit: 05:36 (04:36 UTC)

Prognose

Neuester Wetterbericht von vor 2 Stunden und 36 Minuten, um 02:00 UTC
Gültige Prognose vom 17 um 03 UTC bis 18 um 03 UTC
Wind 9 kt aus Süd/Südost
Sichtweite 10 km oder mehr
keine Wolken unter 1500 m und keine Kumulonimbus oder Gewitterwolken
Zeitweise
vom 17 um 12 UTC bis 17 um 15 UTC
Wind 15 kt aus Süd, Böen bis zu 25 kt

TAF: LEPP 170200Z 1703/1803 15009KT CAVOK TX17/1714Z TNM00/1707Z TEMPO 1712/1715 17015G25KT

Wetterbeobachtungen und Prognosen von mehr als 4000 Flughäfen (METAR und TAF Bericht).

Die verfügbaren Stationen werden durch gelbe und rote Markierungen auf der Karte dargestellt.

Führen Sie die Maus auf sie, um den Namen der Station zu sehen.

Darauf klicken, um die Beobachtung von Wetterbeobachtungen und Prognosen zu sehen.

Um die Karte zu ändern : klicken Sie auf den grünen Tasten mit einem schwarzen Kreuz Zum Vergrößern, auf den grünen Button mit einem Gedankenstrich zu verkleinern, oder auf die grünen Pfeile für benachbarte Karten.


METAR-TAF: